createdAt,value
2022-12-02T00:00:23.478Z,12.32
2022-12-02T00:01:27.261Z,12.20
2022-12-02T00:02:34.640Z,11.52
2022-12-02T00:03:37.678Z,11.77
2022-12-02T00:04:41.037Z,12.60
2022-12-02T00:05:43.342Z,12.52
2022-12-02T00:06:45.792Z,12.40
2022-12-02T00:07:53.034Z,12.55
2022-12-02T00:09:33.187Z,11.82
2022-12-02T00:10:39.591Z,12.15
2022-12-02T00:11:42.083Z,12.07
2022-12-02T00:12:44.622Z,11.65
2022-12-02T00:13:47.023Z,11.95
2022-12-02T00:15:01.286Z,13.45
2022-12-02T00:16:04.901Z,10.93
2022-12-02T00:17:07.297Z,11.75
2022-12-02T00:18:14.195Z,11.75
2022-12-02T00:19:16.666Z,10.63
2022-12-02T00:20:18.959Z,10.93
2022-12-02T00:21:22.383Z,12.05
2022-12-02T00:22:25.044Z,11.35
2022-12-02T00:23:27.340Z,12.00
2022-12-02T00:24:29.678Z,11.90
2022-12-02T00:25:32.621Z,12.00
2022-12-02T00:26:35.010Z,11.75
2022-12-02T00:27:37.355Z,11.90
2022-12-02T00:28:39.808Z,10.77
2022-12-02T00:29:42.110Z,11.13
2022-12-02T00:30:44.908Z,11.82
2022-12-02T00:31:47.302Z,11.25
2022-12-02T00:32:50.989Z,10.93
2022-12-02T00:33:53.531Z,11.75
2022-12-02T00:34:55.883Z,11.13
2022-12-02T00:35:58.431Z,11.20
2022-12-02T00:37:00.975Z,11.02
2022-12-02T00:38:03.767Z,11.55
2022-12-02T00:39:06.057Z,11.32
2022-12-02T00:40:09.211Z,10.90
2022-12-02T00:41:11.546Z,10.80
2022-12-02T00:42:13.846Z,11.13
2022-12-02T00:43:34.891Z,11.18
2022-12-02T00:44:55.808Z,11.43
2022-12-02T00:46:17.068Z,11.32
2022-12-02T00:47:19.439Z,11.90
2022-12-02T00:48:21.736Z,11.70
2022-12-02T00:49:24.060Z,11.23
2022-12-02T00:50:26.644Z,12.52
2022-12-02T00:51:29.233Z,11.27
2022-12-02T00:52:33.812Z,11.75
2022-12-02T00:53:36.201Z,11.35
2022-12-02T00:54:38.524Z,11.98
2022-12-02T00:55:40.840Z,11.60
2022-12-02T00:56:43.246Z,10.70
2022-12-02T00:57:45.836Z,10.73
2022-12-02T00:58:48.183Z,11.40
2022-12-02T00:59:50.459Z,11.98
2022-12-02T01:00:54.176Z,12.13
2022-12-02T01:01:56.749Z,10.60
2022-12-02T01:02:59.965Z,10.95
2022-12-02T01:04:02.796Z,11.07
2022-12-02T01:05:05.654Z,10.75
2022-12-02T01:06:08.003Z,9.60
2022-12-02T01:07:10.490Z,11.02
2022-12-02T01:08:12.938Z,11.65
2022-12-02T01:09:15.363Z,11.02
2022-12-02T01:10:17.705Z,11.13
2022-12-02T01:11:20.034Z,10.23
2022-12-02T01:12:22.348Z,10.63
2022-12-02T01:13:26.729Z,10.25
2022-12-02T01:14:29.376Z,9.77
2022-12-02T01:15:31.750Z,11.00
2022-12-02T01:16:35.242Z,10.73
2022-12-02T01:17:37.712Z,10.98
2022-12-02T01:18:40.035Z,10.07
2022-12-02T01:19:43.034Z,9.73
2022-12-02T01:20:45.411Z,9.73
2022-12-02T01:21:47.799Z,10.00
2022-12-02T01:22:50.138Z,10.15
2022-12-02T01:23:52.557Z,10.13
2022-12-02T01:24:55.003Z,11.27
2022-12-02T01:25:57.358Z,10.45
2022-12-02T01:26:59.698Z,10.50
2022-12-02T01:28:02.129Z,10.65
2022-12-02T01:29:04.478Z,9.75
2022-12-02T01:30:09.346Z,10.02
2022-12-02T01:31:11.903Z,10.38
2022-12-02T01:32:14.630Z,10.98
2022-12-02T01:33:17.019Z,10.45
2022-12-02T01:34:19.374Z,10.55
2022-12-02T01:35:22.748Z,10.27
2022-12-02T01:36:25.091Z,10.45
2022-12-02T01:37:28.521Z,9.32
2022-12-02T01:38:30.981Z,10.85
2022-12-02T01:39:33.483Z,10.35
2022-12-02T01:40:35.914Z,9.70
2022-12-02T01:41:38.322Z,11.32
2022-12-02T01:42:40.904Z,9.93
2022-12-02T01:43:43.442Z,10.48
2022-12-02T01:44:45.823Z,10.40
2022-12-02T01:45:48.398Z,9.98
2022-12-02T01:46:50.968Z,10.52
2022-12-02T01:47:53.680Z,10.05
2022-12-02T01:48:56.157Z,10.52
2022-12-02T01:49:58.567Z,9.63
2022-12-02T01:51:00.954Z,10.00
2022-12-02T01:52:03.488Z,10.20
2022-12-02T01:53:05.961Z,10.05
2022-12-02T01:54:08.389Z,10.98
2022-12-02T01:55:19.093Z,10.27
2022-12-02T01:56:21.464Z,10.52
2022-12-02T01:57:28.485Z,10.65
2022-12-02T01:58:31.831Z,10.68
2022-12-02T01:59:34.227Z,9.95
2022-12-02T02:00:36.796Z,9.85
2022-12-02T02:01:39.931Z,10.57
2022-12-02T02:02:42.726Z,10.40
2022-12-02T02:03:45.065Z,10.77
2022-12-02T02:04:48.565Z,11.43
2022-12-02T02:05:51.651Z,10.27
2022-12-02T02:06:54.148Z,9.93
2022-12-02T02:08:07.017Z,10.13
2022-12-02T02:09:10.684Z,9.85
2022-12-02T02:10:13.072Z,8.75
2022-12-02T02:11:16.576Z,10.52
2022-12-02T02:12:19.536Z,10.35
2022-12-02T02:13:22.432Z,10.73
2022-12-02T02:14:24.776Z,10.32
2022-12-02T02:15:27.973Z,9.93
2022-12-02T02:16:30.689Z,9.75
2022-12-02T02:17:33.886Z,9.93
2022-12-02T02:18:36.292Z,9.43
2022-12-02T02:19:38.650Z,9.57
2022-12-02T02:20:42.122Z,10.93
2022-12-02T02:21:49.970Z,8.88
2022-12-02T02:23:05.696Z,9.93
2022-12-02T02:24:09.787Z,10.35
2022-12-02T02:25:20.131Z,9.88
2022-12-02T02:26:24.157Z,10.13
2022-12-02T02:27:26.503Z,11.60
2022-12-02T02:28:29.371Z,9.95
2022-12-02T02:29:31.892Z,10.07
2022-12-02T02:30:36.487Z,9.75
2022-12-02T02:31:39.146Z,10.55
2022-12-02T02:32:42.503Z,8.98
2022-12-02T02:33:45.341Z,11.00
2022-12-02T02:34:47.743Z,10.30
2022-12-02T02:35:50.790Z,10.50
2022-12-02T02:36:53.716Z,10.02
2022-12-02T02:37:56.750Z,9.48
2022-12-02T02:38:59.997Z,10.07
2022-12-02T02:40:03.569Z,11.18
2022-12-02T02:41:07.159Z,10.32
2022-12-02T02:42:09.840Z,9.27
2022-12-02T02:43:13.163Z,10.15
2022-12-02T02:44:19.389Z,9.70
2022-12-02T02:45:29.638Z,10.50
2022-12-02T02:46:34.843Z,10.55
2022-12-02T02:47:37.529Z,11.10
2022-12-02T02:48:41.495Z,10.45
2022-12-02T02:49:44.113Z,10.60
2022-12-02T02:50:48.467Z,9.68
2022-12-02T02:51:52.689Z,9.73
2022-12-02T02:52:55.512Z,9.13
2022-12-02T02:53:58.122Z,9.57
2022-12-02T02:55:00.509Z,9.73
2022-12-02T02:56:04.087Z,11.35
2022-12-02T02:57:09.575Z,9.73
2022-12-02T02:58:19.528Z,9.68
2022-12-02T02:59:24.559Z,10.07
2022-12-02T03:00:26.943Z,9.13
2022-12-02T03:01:36.910Z,9.75
2022-12-02T03:02:40.958Z,10.50
2022-12-02T03:03:47.096Z,9.93
2022-12-02T03:04:50.214Z,10.27
2022-12-02T03:05:55.086Z,9.90
2022-12-02T03:06:57.814Z,9.57
2022-12-02T03:08:00.742Z,10.20
2022-12-02T03:09:06.006Z,9.48
2022-12-02T03:10:10.234Z,9.95
2022-12-02T03:11:13.215Z,9.75
2022-12-02T03:12:16.977Z,10.45
2022-12-02T03:13:19.655Z,9.38
2022-12-02T03:14:22.756Z,9.82
2022-12-02T03:15:27.260Z,11.00
2022-12-02T03:16:29.689Z,9.82
2022-12-02T03:17:32.313Z,10.38
2022-12-02T03:18:35.890Z,10.25
2022-12-02T03:19:39.666Z,10.32
2022-12-02T03:20:42.073Z,10.23
2022-12-02T03:21:44.871Z,9.65
2022-12-02T03:22:47.299Z,10.50
2022-12-02T03:23:53.035Z,11.00
2022-12-02T03:24:56.134Z,10.32
2022-12-02T03:25:59.381Z,9.30
2022-12-02T03:27:02.319Z,10.48
2022-12-02T03:28:05.710Z,9.82
2022-12-02T03:29:10.514Z,10.30
2022-12-02T03:30:17.961Z,10.15
2022-12-02T03:31:21.626Z,9.98
2022-12-02T03:32:24.278Z,9.63
2022-12-02T03:33:27.596Z,10.27
2022-12-02T03:34:30.292Z,10.15
2022-12-02T03:35:32.891Z,9.90
2022-12-02T03:36:35.671Z,10.65
2022-12-02T03:37:39.709Z,9.10
2022-12-02T03:38:42.877Z,10.60
2022-12-02T03:39:45.859Z,9.90
2022-12-02T03:40:48.687Z,10.23
2022-12-02T03:41:51.194Z,10.07
2022-12-02T03:42:54.227Z,10.32
2022-12-02T03:43:58.284Z,10.60
2022-12-02T03:45:01.634Z,10.63
2022-12-02T03:46:06.119Z,10.82
2022-12-02T03:47:08.799Z,10.35
2022-12-02T03:48:12.621Z,10.00
2022-12-02T03:49:15.970Z,9.77
2022-12-02T03:50:18.741Z,10.18
2022-12-02T03:51:21.083Z,9.88
2022-12-02T03:52:23.476Z,10.20
2022-12-02T03:53:26.121Z,10.43
2022-12-02T03:54:28.618Z,9.80
2022-12-02T03:55:31.099Z,10.48
2022-12-02T03:56:38.254Z,9.60
2022-12-02T03:57:42.094Z,9.65
2022-12-02T03:58:52.101Z,9.75
2022-12-02T03:59:54.428Z,9.77
2022-12-02T04:00:56.811Z,10.55
2022-12-02T04:01:59.380Z,9.50
2022-12-02T04:03:02.547Z,9.93
2022-12-02T04:04:05.049Z,9.95
2022-12-02T04:05:07.762Z,10.27
2022-12-02T04:06:10.578Z,9.85
2022-12-02T04:07:12.875Z,9.35
2022-12-02T04:08:15.163Z,10.25
2022-12-02T04:09:17.547Z,10.02
2022-12-02T04:10:19.963Z,10.68
2022-12-02T04:11:22.425Z,11.23
2022-12-02T04:12:24.746Z,10.32
2022-12-02T04:13:27.195Z,9.85
2022-12-02T04:14:29.698Z,10.10
2022-12-02T04:15:32.369Z,10.07
2022-12-02T04:16:34.777Z,9.90
2022-12-02T04:17:37.165Z,10.38
2022-12-02T04:18:39.529Z,10.77
2022-12-02T04:19:41.785Z,9.13
2022-12-02T04:20:44.236Z,10.40
2022-12-02T04:21:46.517Z,9.35
2022-12-02T04:22:48.810Z,10.02
2022-12-02T04:23:52.763Z,10.70
2022-12-02T04:24:58.696Z,10.10
2022-12-02T04:26:01.014Z,9.52
2022-12-02T04:27:03.490Z,9.85
2022-12-02T04:28:05.862Z,11.05
2022-12-02T04:29:08.420Z,9.80
2022-12-02T04:30:10.994Z,9.52
2022-12-02T04:31:13.615Z,10.75
2022-12-02T04:32:16.100Z,10.05
2022-12-02T04:33:18.487Z,10.20
2022-12-02T04:34:20.870Z,10.02
2022-12-02T04:35:23.516Z,9.35
2022-12-02T04:36:25.943Z,9.85
2022-12-02T04:37:28.282Z,10.73
2022-12-02T04:38:30.637Z,10.18
2022-12-02T04:39:32.977Z,9.48
2022-12-02T04:40:35.419Z,8.85
2022-12-02T04:41:37.673Z,9.68
2022-12-02T04:42:40.016Z,9.90
2022-12-02T04:43:42.533Z,9.85
2022-12-02T04:44:44.915Z,9.73
2022-12-02T04:45:47.258Z,10.05
2022-12-02T04:46:49.606Z,11.00
2022-12-02T04:47:52.043Z,9.55
2022-12-02T04:48:54.328Z,10.48
2022-12-02T04:49:56.634Z,9.65
2022-12-02T04:50:58.986Z,11.40
2022-12-02T04:52:01.233Z,36.25
2022-12-02T04:53:03.782Z,104.90
2022-12-02T04:54:06.169Z,60.67
2022-12-02T04:55:08.940Z,61.83
2022-12-02T04:56:11.350Z,41.58
2022-12-02T04:57:13.677Z,33.70
2022-12-02T04:58:16.287Z,37.03
2022-12-02T04:59:18.568Z,24.70
2022-12-02T05:00:21.098Z,22.42
2022-12-02T05:01:23.429Z,21.38
2022-12-02T05:02:25.854Z,20.33
2022-12-02T05:03:28.153Z,17.45
2022-12-02T05:04:33.989Z,17.35
2022-12-02T05:05:39.109Z,15.48
2022-12-02T05:06:41.444Z,16.13
2022-12-02T05:07:43.890Z,15.70
2022-12-02T05:08:46.281Z,14.55
2022-12-02T05:09:48.648Z,13.65
2022-12-02T05:10:51.122Z,12.77
2022-12-02T05:11:53.414Z,12.70
2022-12-02T05:12:55.715Z,12.00
2022-12-02T05:13:58.612Z,11.35
2022-12-02T05:15:00.974Z,12.60
2022-12-02T05:16:03.494Z,11.88
2022-12-02T05:17:05.896Z,12.27
2022-12-02T05:18:08.283Z,11.43
2022-12-02T05:19:10.574Z,10.82
2022-12-02T05:20:13.341Z,11.80
2022-12-02T05:21:15.701Z,11.75
2022-12-02T05:22:18.026Z,11.25
2022-12-02T05:23:20.381Z,11.02
2022-12-02T05:24:22.667Z,10.48
2022-12-02T05:25:25.030Z,11.15
2022-12-02T05:26:27.383Z,10.90
2022-12-02T05:27:35.036Z,11.77
2022-12-02T05:28:37.820Z,10.23
2022-12-02T05:29:40.228Z,10.90
2022-12-02T05:30:42.534Z,10.80
2022-12-02T05:31:44.972Z,11.68
2022-12-02T05:32:47.289Z,11.88
2022-12-02T05:33:50.071Z,10.45
2022-12-02T05:34:52.631Z,12.50
2022-12-02T05:35:55.893Z,34.97
2022-12-02T05:36:58.158Z,27.77
2022-12-02T05:38:04.843Z,24.02
2022-12-02T05:39:07.648Z,16.77
2022-12-02T05:40:10.378Z,13.82
2022-12-02T05:41:12.689Z,13.70
2022-12-02T05:42:15.524Z,11.88
2022-12-02T05:43:21.251Z,11.07
2022-12-02T05:44:25.607Z,11.52
2022-12-02T05:45:27.907Z,11.75
2022-12-02T05:46:30.385Z,10.40
2022-12-02T05:47:32.974Z,10.57
2022-12-02T05:48:35.481Z,10.57
2022-12-02T05:49:38.320Z,11.20
2022-12-02T05:50:42.157Z,10.63
2022-12-02T05:51:48.354Z,11.07
2022-12-02T05:52:52.214Z,10.77
2022-12-02T05:53:54.645Z,10.45
2022-12-02T05:55:07.637Z,10.57
2022-12-02T05:56:17.949Z,11.38
2022-12-02T05:57:28.063Z,10.27
2022-12-02T05:58:30.834Z,10.57
2022-12-02T05:59:33.182Z,9.80
2022-12-02T06:00:36.992Z,10.45
2022-12-02T06:01:40.188Z,10.38
2022-12-02T06:03:05.344Z,10.43
2022-12-02T06:04:34.031Z,10.50
2022-12-02T06:05:45.655Z,10.50
2022-12-02T06:06:48.520Z,10.60
2022-12-02T06:07:57.151Z,9.82
2022-12-02T06:09:00.193Z,9.20
2022-12-02T06:10:02.552Z,9.38
2022-12-02T06:11:34.021Z,9.98
2022-12-02T06:12:36.301Z,10.38
2022-12-02T06:13:39.345Z,10.23
2022-12-02T06:14:47.866Z,13.02
2022-12-02T06:15:51.463Z,12.05
2022-12-02T06:16:57.612Z,11.82
2022-12-02T06:18:00.044Z,18.60
2022-12-02T06:19:08.749Z,21.23
2022-12-02T06:20:29.890Z,25.83
2022-12-02T06:21:32.378Z,28.70
2022-12-02T06:22:34.867Z,24.13
2022-12-02T06:23:44.101Z,16.30
2022-12-02T06:24:47.020Z,13.50
2022-12-02T06:25:52.466Z,12.00
2022-12-02T06:26:57.957Z,11.80
2022-12-02T06:28:22.027Z,12.43
2022-12-02T06:29:25.858Z,10.48
2022-12-02T06:30:28.308Z,11.73
2022-12-02T06:31:39.291Z,11.35
2022-12-02T06:33:49.228Z,10.10
2022-12-02T06:34:53.345Z,11.77
2022-12-02T06:35:57.348Z,11.45
2022-12-02T06:37:09.222Z,11.32
2022-12-02T06:38:25.050Z,11.25
2022-12-02T06:39:27.539Z,10.60
2022-12-02T06:40:33.005Z,9.95
2022-12-02T06:41:37.920Z,10.00
2022-12-02T06:42:40.283Z,12.00
2022-12-02T06:44:02.595Z,12.43
2022-12-02T06:45:14.068Z,11.20
2022-12-02T06:47:37.463Z,12.30
2022-12-02T06:48:40.624Z,11.43
2022-12-02T06:49:42.933Z,11.43
2022-12-02T06:50:48.007Z,10.45
2022-12-02T06:51:56.651Z,11.75
2022-12-02T06:53:07.888Z,12.13
2022-12-02T06:54:19.239Z,12.70
2022-12-02T06:56:41.555Z,12.02
2022-12-02T06:57:43.920Z,10.93
2022-12-02T06:58:54.306Z,11.43
2022-12-02T06:59:57.112Z,10.15
2022-12-02T07:01:08.324Z,11.90
2022-12-02T07:02:27.509Z,14.75
2022-12-02T07:03:32.538Z,11.93
2022-12-02T07:04:45.734Z,11.43
2022-12-02T07:05:48.165Z,12.57
2022-12-02T07:06:54.320Z,12.40
2022-12-02T07:07:56.681Z,25.20
2022-12-02T07:09:19.492Z,22.00
2022-12-02T07:10:27.463Z,26.48
2022-12-02T07:11:51.715Z,22.08
2022-12-02T07:12:57.410Z,25.20
2022-12-02T07:13:59.756Z,20.55
2022-12-02T07:15:26.227Z,17.40
2022-12-02T07:16:34.927Z,12.80
2022-12-02T07:17:40.266Z,12.75
2022-12-02T07:18:42.566Z,12.00
2022-12-02T07:19:46.882Z,12.35
2022-12-02T07:20:50.099Z,12.68
2022-12-02T07:21:53.798Z,12.27
2022-12-02T07:23:21.042Z,12.70
2022-12-02T07:24:24.718Z,12.50
2022-12-02T07:25:39.523Z,12.32
2022-12-02T07:26:44.309Z,13.35
2022-12-02T07:27:49.571Z,12.95
2022-12-02T07:29:14.545Z,12.75
2022-12-02T07:30:23.097Z,12.90
2022-12-02T07:31:28.063Z,12.70
2022-12-02T07:32:30.619Z,12.80
2022-12-02T07:33:32.910Z,11.98
2022-12-02T07:34:35.221Z,12.18
2022-12-02T07:35:37.539Z,12.43
2022-12-02T07:36:40.251Z,11.20
2022-12-02T07:37:42.634Z,11.50
2022-12-02T07:40:08.100Z,9.88
2022-12-02T07:41:10.739Z,12.20
2022-12-02T07:42:14.755Z,11.65
2022-12-02T07:43:17.066Z,11.25
2022-12-02T07:44:19.391Z,12.05
2022-12-02T07:45:21.731Z,10.98
2022-12-02T07:46:26.035Z,10.63
2022-12-02T07:47:28.881Z,10.45
2022-12-02T07:48:31.544Z,9.93
2022-12-02T07:49:33.889Z,10.57
2022-12-02T07:50:36.491Z,9.23
2022-12-02T07:51:39.014Z,10.95
2022-12-02T07:52:41.375Z,10.02
2022-12-02T07:53:43.931Z,10.23
2022-12-02T07:54:46.406Z,9.52
2022-12-02T07:55:48.765Z,9.95
2022-12-02T07:56:51.200Z,9.63
2022-12-02T07:57:53.823Z,11.93
2022-12-02T07:59:12.004Z,11.13
2022-12-02T08:00:15.551Z,10.50
2022-12-02T08:01:19.973Z,10.95
2022-12-02T08:02:22.786Z,11.35
2022-12-02T08:03:25.517Z,10.27
2022-12-02T08:04:28.294Z,9.98
2022-12-02T08:05:30.732Z,9.40
2022-12-02T08:06:38.719Z,10.95
2022-12-02T08:07:42.645Z,12.68
2022-12-02T08:08:45.230Z,12.88
2022-12-02T08:09:47.570Z,11.15
2022-12-02T08:10:50.054Z,10.43
2022-12-02T08:11:52.303Z,12.60
2022-12-02T08:12:54.625Z,12.48
2022-12-02T08:13:56.964Z,10.73
2022-12-02T08:14:59.271Z,9.35
2022-12-02T08:16:01.616Z,10.98
2022-12-02T08:17:03.954Z,11.05
2022-12-02T08:18:06.332Z,11.45
2022-12-02T08:19:08.686Z,9.82
2022-12-02T08:20:12.316Z,9.65
2022-12-02T08:21:14.977Z,10.07
2022-12-02T08:22:17.491Z,10.13
2022-12-02T08:23:19.794Z,9.98
2022-12-02T08:24:22.201Z,9.40
2022-12-02T08:25:24.616Z,8.50
2022-12-02T08:26:27.015Z,8.60
2022-12-02T08:27:29.282Z,8.75
2022-12-02T08:28:31.646Z,8.60
2022-12-02T08:29:34.738Z,8.00
2022-12-02T08:30:37.093Z,9.00
2022-12-02T08:31:39.710Z,8.68
2022-12-02T08:32:41.990Z,8.27
2022-12-02T08:33:44.334Z,8.60
2022-12-02T08:34:47.273Z,8.98
2022-12-02T08:35:49.677Z,9.02
2022-12-02T08:36:52.094Z,9.55
2022-12-02T08:37:54.381Z,9.25
2022-12-02T08:38:56.710Z,13.55
2022-12-02T08:39:59.018Z,13.35
2022-12-02T08:41:01.477Z,18.33
2022-12-02T08:42:04.498Z,17.17
2022-12-02T08:43:06.886Z,13.85
2022-12-02T08:44:09.196Z,12.32
2022-12-02T08:45:12.178Z,10.43
2022-12-02T08:46:14.933Z,9.32
2022-12-02T08:47:17.394Z,9.13
2022-12-02T08:48:19.853Z,8.70
2022-12-02T08:49:22.890Z,9.77
2022-12-02T08:50:26.071Z,9.88
2022-12-02T08:51:28.521Z,10.27
2022-12-02T08:52:30.981Z,11.98
2022-12-02T08:53:33.321Z,10.60
2022-12-02T08:54:35.762Z,10.25
2022-12-02T08:55:38.083Z,9.43
2022-12-02T08:56:40.595Z,10.20
2022-12-02T08:57:42.943Z,9.88
2022-12-02T08:58:45.328Z,10.55
2022-12-02T08:59:47.655Z,11.02
2022-12-02T09:00:50.002Z,9.50
2022-12-02T09:01:52.399Z,9.80
2022-12-02T09:02:54.904Z,8.82
2022-12-02T09:03:57.348Z,9.93
2022-12-02T09:04:59.793Z,10.45
2022-12-02T09:06:02.488Z,9.63
2022-12-02T09:07:04.837Z,10.30
2022-12-02T09:08:08.061Z,10.95
2022-12-02T09:09:10.870Z,11.50
2022-12-02T09:10:15.516Z,10.55
2022-12-02T09:11:17.975Z,10.50
2022-12-02T09:12:20.635Z,9.07
2022-12-02T09:13:22.980Z,8.35
2022-12-02T09:14:28.161Z,10.05
2022-12-02T09:15:30.469Z,9.55
2022-12-02T09:16:32.835Z,8.73
2022-12-02T09:17:35.215Z,8.48
2022-12-02T09:18:37.538Z,10.50
2022-12-02T09:19:39.989Z,8.98
2022-12-02T09:20:42.680Z,10.63
2022-12-02T09:21:45.336Z,10.23
2022-12-02T09:22:47.719Z,9.85
2022-12-02T09:23:50.974Z,9.18
2022-12-02T09:24:53.683Z,8.70
2022-12-02T09:25:56.533Z,8.00
2022-12-02T09:26:59.107Z,8.48
2022-12-02T09:28:01.516Z,7.72
2022-12-02T09:29:04.269Z,8.00
2022-12-02T09:30:07.827Z,9.82
2022-12-02T09:31:10.202Z,8.65
2022-12-02T09:32:12.623Z,17.42
2022-12-02T09:33:15.165Z,17.77
2022-12-02T09:34:18.022Z,23.73
2022-12-02T09:35:20.480Z,15.60
2022-12-02T09:36:24.666Z,11.85
2022-12-02T09:37:27.340Z,12.30
2022-12-02T09:38:32.064Z,26.55
2022-12-02T09:39:38.686Z,42.45
2022-12-02T09:40:42.230Z,40.85
2022-12-02T09:41:45.469Z,43.30
2022-12-02T09:42:47.996Z,46.35
2022-12-02T09:43:50.830Z,48.83
2022-12-02T09:44:53.803Z,55.65
2022-12-02T09:45:57.523Z,47.45
2022-12-02T09:47:00.106Z,41.75
2022-12-02T09:48:02.898Z,57.58
2022-12-02T09:49:06.857Z,47.15
2022-12-02T09:50:13.737Z,38.50
2022-12-02T09:51:16.202Z,32.45
2022-12-02T09:52:26.930Z,35.10
2022-12-02T09:53:36.770Z,33.58
2022-12-02T09:54:39.192Z,32.85
2022-12-02T09:55:41.666Z,42.10
2022-12-02T09:56:44.575Z,41.78
2022-12-02T09:57:47.506Z,44.17
2022-12-02T09:58:53.403Z,53.45
2022-12-02T09:59:56.426Z,47.80
2022-12-02T10:00:58.855Z,51.20
2022-12-02T10:02:01.494Z,51.65
2022-12-02T10:03:07.343Z,55.28
2022-12-02T10:04:13.080Z,52.25
2022-12-02T10:05:27.582Z,53.05
2022-12-02T10:06:30.080Z,38.53
2022-12-02T10:07:32.500Z,49.85
2022-12-02T10:08:36.282Z,48.42
2022-12-02T10:09:38.666Z,41.63
2022-12-02T10:10:42.887Z,38.05
2022-12-02T10:11:45.698Z,42.75
2022-12-02T10:12:48.651Z,39.85
2022-12-02T10:13:51.377Z,35.92
2022-12-02T10:14:54.049Z,39.67
2022-12-02T10:15:56.729Z,32.83
2022-12-02T10:16:59.668Z,36.83
2022-12-02T10:18:10.792Z,34.53
2022-12-02T10:19:18.759Z,36.90
2022-12-02T10:20:24.620Z,37.67
2022-12-02T10:21:27.164Z,36.47
2022-12-02T10:22:29.712Z,35.35
2022-12-02T10:23:37.816Z,34.88
2022-12-02T10:24:42.156Z,36.03
2022-12-02T10:25:51.091Z,37.38
2022-12-02T10:26:53.551Z,38.92
2022-12-02T10:27:55.990Z,37.75
2022-12-02T10:29:00.210Z,36.17
2022-12-02T10:30:22.389Z,39.85
2022-12-02T10:31:24.812Z,38.33
2022-12-02T10:32:27.947Z,40.88
2022-12-02T10:33:33.908Z,34.88
2022-12-02T10:34:36.677Z,36.50
2022-12-02T10:35:47.565Z,35.55
2022-12-02T10:36:50.471Z,38.75
2022-12-02T10:37:55.495Z,45.83
2022-12-02T10:39:18.994Z,44.95
2022-12-02T10:40:25.543Z,45.08
2022-12-02T10:41:29.916Z,45.65
2022-12-02T10:42:32.276Z,48.35
2022-12-02T10:43:34.553Z,45.17
2022-12-02T10:44:44.462Z,38.38
2022-12-02T10:45:58.919Z,45.03
2022-12-02T10:47:26.171Z,37.70
2022-12-02T10:48:29.054Z,35.53
2022-12-02T10:49:36.450Z,34.38
2022-12-02T10:50:40.181Z,37.08
2022-12-02T10:51:42.568Z,34.70
2022-12-02T10:52:48.590Z,34.58
2022-12-02T10:53:57.073Z,31.48
2022-12-02T10:55:00.249Z,31.30
2022-12-02T10:56:02.833Z,32.42
2022-12-02T10:57:06.554Z,32.88
2022-12-02T10:58:15.797Z,33.85
2022-12-02T10:59:18.218Z,35.30
2022-12-02T11:00:23.796Z,33.85
2022-12-02T11:01:26.188Z,32.17
2022-12-02T11:02:33.225Z,30.85
2022-12-02T11:03:35.607Z,32.20
2022-12-02T11:04:37.902Z,29.88
2022-12-02T11:05:40.739Z,38.45
2022-12-02T11:06:44.521Z,31.67
2022-12-02T11:08:00.402Z,39.38
2022-12-02T11:09:37.953Z,31.83
2022-12-02T11:10:32.593Z,30.85
2022-12-02T11:11:34.810Z,30.83
2022-12-02T11:12:59.442Z,29.88
2022-12-02T11:14:04.803Z,33.53
2022-12-02T11:15:46.186Z,29.83
2022-12-02T11:17:05.971Z,28.90
2022-12-02T11:18:30.539Z,31.85
2022-12-02T11:19:35.994Z,30.98
2022-12-02T11:20:41.310Z,28.88
2022-12-02T11:21:45.433Z,29.83
2022-12-02T11:23:25.356Z,35.97
2022-12-02T11:24:31.738Z,41.03
2022-12-02T11:26:12.767Z,53.88
2022-12-02T11:27:18.701Z,38.28
2022-12-02T11:28:44.771Z,41.80
2022-12-02T11:30:06.904Z,37.28
2022-12-02T11:31:12.078Z,26.85
2022-12-02T11:32:26.249Z,21.73
2022-12-02T11:33:43.530Z,22.75
2022-12-02T11:35:15.720Z,16.35
2022-12-02T11:36:10.404Z,16.90
2022-12-02T11:37:28.309Z,15.77
2022-12-02T11:38:53.051Z,16.83
2022-12-02T11:39:56.331Z,16.73
2022-12-02T11:41:00.099Z,20.77
2022-12-02T11:42:02.384Z,44.50
2022-12-02T11:43:45.434Z,35.92
2022-12-02T11:44:47.750Z,33.55
2022-12-02T11:45:57.997Z,33.17
2022-12-02T11:47:03.121Z,33.35
2022-12-02T11:48:16.616Z,28.35
2022-12-02T11:49:32.687Z,28.25
2022-12-02T11:50:39.416Z,27.75
2022-12-02T11:51:41.953Z,26.95
2022-12-02T11:53:10.296Z,25.55
2022-12-02T11:54:15.550Z,23.88
2022-12-02T11:55:30.096Z,25.42
2022-12-02T11:56:41.038Z,23.75
2022-12-02T11:57:54.032Z,23.50
2022-12-02T11:58:57.773Z,23.30
2022-12-02T12:00:00.257Z,24.77
2022-12-02T12:01:16.226Z,23.33
2022-12-02T12:02:21.513Z,22.60
2022-12-02T12:03:25.533Z,21.60
2022-12-02T12:04:29.575Z,22.95
2022-12-02T12:05:31.968Z,23.90
2022-12-02T12:06:35.360Z,22.10
2022-12-02T12:08:01.313Z,21.15
2022-12-02T12:09:11.292Z,19.98
2022-12-02T12:10:33.135Z,22.13
2022-12-02T12:11:37.342Z,22.75
2022-12-02T12:13:11.532Z,20.90
2022-12-02T12:14:14.070Z,20.92
2022-12-02T12:15:16.468Z,21.88
2022-12-02T12:16:24.338Z,20.30
2022-12-02T12:17:40.690Z,20.38
2022-12-02T12:18:48.161Z,20.27
2022-12-02T12:19:50.463Z,19.45
2022-12-02T12:20:53.101Z,19.90
2022-12-02T12:21:57.157Z,19.80
2022-12-02T12:23:28.575Z,19.92
2022-12-02T12:24:32.396Z,17.50
2022-12-02T12:25:41.922Z,19.00
2022-12-02T12:26:46.406Z,18.98
2022-12-02T12:27:48.664Z,19.35
2022-12-02T12:28:51.149Z,20.92
2022-12-02T12:29:55.719Z,21.27
2022-12-02T12:31:00.025Z,23.45
2022-12-02T12:32:02.918Z,136.90
2022-12-02T12:33:05.537Z,130.48
2022-12-02T12:34:08.878Z,127.85
2022-12-02T12:35:11.256Z,95.75
2022-12-02T12:36:13.646Z,79.72
2022-12-02T12:37:15.961Z,61.85
2022-12-02T12:38:18.278Z,58.50
2022-12-02T12:39:20.617Z,44.28
2022-12-02T12:40:22.947Z,35.03
2022-12-02T12:41:51.403Z,54.80
2022-12-02T12:42:47.613Z,37.28
2022-12-02T12:43:50.446Z,37.75
2022-12-02T12:44:53.152Z,61.40
2022-12-02T12:45:55.748Z,84.07
2022-12-02T12:46:59.840Z,83.38
2022-12-02T12:48:02.580Z,70.07
2022-12-02T12:49:04.954Z,74.80
2022-12-02T12:50:07.835Z,71.20
2022-12-02T12:51:10.889Z,60.97
2022-12-02T12:52:13.219Z,59.65
2022-12-02T12:53:16.239Z,57.15
2022-12-02T12:54:18.840Z,56.35
2022-12-02T12:55:22.611Z,54.03
2022-12-02T12:56:24.955Z,53.38
2022-12-02T12:57:27.252Z,51.60
2022-12-02T12:58:29.687Z,52.10
2022-12-02T12:59:32.031Z,31.33
2022-12-02T13:00:34.505Z,36.58
2022-12-02T13:01:37.794Z,54.70
2022-12-02T13:02:40.231Z,48.10
2022-12-02T13:03:42.687Z,49.88
2022-12-02T13:04:45.011Z,47.45
2022-12-02T13:05:47.366Z,43.80
2022-12-02T13:06:50.043Z,44.50
2022-12-02T13:07:52.559Z,44.92
2022-12-02T13:08:54.942Z,42.10
2022-12-02T13:09:57.370Z,41.80
2022-12-02T13:10:59.858Z,42.67
2022-12-02T13:12:02.187Z,40.88
2022-12-02T13:13:04.789Z,40.10
2022-12-02T13:14:07.224Z,41.97
2022-12-02T13:15:09.896Z,45.33
2022-12-02T13:16:12.886Z,40.35
2022-12-02T13:17:15.394Z,38.80
2022-12-02T13:18:17.868Z,36.83
2022-12-02T13:19:20.192Z,28.55
2022-12-02T13:20:22.811Z,39.75
2022-12-02T13:21:25.147Z,58.50
2022-12-02T13:22:27.529Z,43.85
2022-12-02T13:23:29.881Z,63.70
2022-12-02T13:24:33.267Z,57.95
2022-12-02T13:25:38.084Z,50.50
2022-12-02T13:26:40.410Z,47.28
2022-12-02T13:27:43.103Z,43.22
2022-12-02T13:28:45.429Z,43.38
2022-12-02T13:29:47.903Z,41.63
2022-12-02T13:30:52.039Z,42.00
2022-12-02T13:31:54.426Z,40.10
2022-12-02T13:32:57.126Z,42.05
2022-12-02T13:33:59.543Z,38.00
2022-12-02T13:35:01.898Z,34.75
2022-12-02T13:36:04.369Z,37.88
2022-12-02T13:37:06.808Z,41.42
2022-12-02T13:38:09.124Z,41.70
2022-12-02T13:39:11.691Z,35.47
2022-12-02T13:40:17.568Z,35.75
2022-12-02T13:41:20.114Z,35.40
2022-12-02T13:42:22.557Z,33.88
2022-12-02T13:43:25.031Z,29.90
2022-12-02T13:44:27.483Z,30.02
2022-12-02T13:45:30.380Z,30.42
2022-12-02T13:46:32.976Z,32.17
2022-12-02T13:47:35.558Z,31.02
2022-12-02T13:48:38.037Z,31.30
2022-12-02T13:49:40.556Z,32.42
2022-12-02T13:50:43.449Z,32.22
2022-12-02T13:51:45.749Z,31.48
2022-12-02T13:52:48.098Z,30.65
2022-12-02T13:53:54.370Z,33.42
2022-12-02T13:55:00.923Z,30.02
2022-12-02T13:56:03.307Z,33.63
2022-12-02T13:57:05.687Z,35.42
2022-12-02T13:58:08.127Z,30.92
2022-12-02T13:59:10.388Z,37.20
2022-12-02T14:00:13.333Z,30.38
2022-12-02T14:01:16.317Z,28.58
2022-12-02T14:02:18.708Z,31.70
2022-12-02T14:03:21.110Z,38.90
2022-12-02T14:04:23.449Z,32.30
2022-12-02T14:05:25.755Z,31.23